Krisjanis Valdemars — V7LI9 — position and weather

sailwx.info

Track history (hours):
 
Tides and Currents Weather Stations Pressure Air Temp Water Temp Dewpoint Dewpoint Depression Visibility Wind Speed Wind Dir Waves Ship Positions

Krisjanis Valdemars

Last reported at 2016-Jul-28 07:33 UTC. Time now 2016-Jul-28 08:34 UTC.
Position N 40°45' E 028°46'.

Length 183 m; draft 7.1 m.

Type: Tanker. MMSI: 538002757.

Date/timePositionNaut miles runAvg speedWind from/ knotsBaromVisibWave heightAir tempDewpointWater temp
2016-Jul-28 07:33N 40°45' E 028°46'218 6.4
2016-Jul-26 21:20N 38°09' E 025°29'2712.7
2016-Jul-26 19:11N 37°44' E 025°43'1212.9
2016-Jul-26 18:15N 37°33' E 025°48'912.6
2016-Jul-26 17:33N 37°25' E 025°53'  
2016-Jul-23 19:33N 37°29' E 023°48'1313.5
2016-Jul-23 18:34N 37°42' E 023°41'1211.6
2016-Jul-23 17:33N 37°50' E 023°31'1313.3
2016-Jul-23 16:33N 37°52' E 023°14'8 0.4
2016-Jul-22 19:33N 37°55' E 023°05'1 1.1
2016-Jul-22 18:33N 37°54' E 023°06'0 0.4
2016-Jul-22 17:33N 37°54' E 023°06'3 2.7
2016-Jul-22 16:34N 37°53' E 023°09'9 9.4
2016-Jul-22 15:34N 37°52' E 023°21'1313.1
2016-Jul-22 14:33N 37°51' E 023°38'1313.2
2016-Jul-22 13:33N 37°39' E 023°46'1413.8
2016-Jul-22 12:33N 37°26' E 023°52'1413.8
2016-Jul-22 11:33N 37°13' E 023°58'  
Track history (hours):
 
Tides and Currents Weather Stations Pressure Air Temp Water Temp Dewpoint Dewpoint Depression Visibility Wind Speed Wind Dir Waves Ship Positions

Krisjanis Valdemars

Last reported at 2016-Jul-28 07:33 UTC. Time now 2016-Jul-28 08:34 UTC.
Position N 40°45' E 028°46'.

Length 183 m; draft 7.1 m.

Type: Tanker. MMSI: 538002757.

Date/timePositionNaut miles runAvg speedWind from/ knotsBaromVisibWave heightAir tempDewpointWater temp
2016-Jul-28 07:33N 40°45' E 028°46'218 6.4
2016-Jul-26 21:20N 38°09' E 025°29'2712.7
2016-Jul-26 19:11N 37°44' E 025°43'1212.9
2016-Jul-26 18:15N 37°33' E 025°48'912.6
2016-Jul-26 17:33N 37°25' E 025°53'  
2016-Jul-23 19:33N 37°29' E 023°48'1313.5
2016-Jul-23 18:34N 37°42' E 023°41'1211.6
2016-Jul-23 17:33N 37°50' E 023°31'1313.3
2016-Jul-23 16:33N 37°52' E 023°14'8 0.4
2016-Jul-22 19:33N 37°55' E 023°05'1 1.1
2016-Jul-22 18:33N 37°54' E 023°06'0 0.4
2016-Jul-22 17:33N 37°54' E 023°06'3 2.7
2016-Jul-22 16:34N 37°53' E 023°09'9 9.4
2016-Jul-22 15:34N 37°52' E 023°21'1313.1
2016-Jul-22 14:33N 37°51' E 023°38'1313.2
2016-Jul-22 13:33N 37°39' E 023°46'1413.8
2016-Jul-22 12:33N 37°26' E 023°52'1413.8
2016-Jul-22 11:33N 37°13' E 023°58'  

Dump ship's entire track history